FAD216 OERK-OBBI
Flight info
| Callsign | FAD216 |
|---|---|
| Flight time | N/A |
| Altitude | 23000 |
| Route | ORNIP H976 MUSRI L604 KFA M691 LADNA |
| Aircraft | A320/M-SDE3FGHIRWY/LB1 |
Departure
| Time | 2026-05-08 07:46 |
|---|---|
| Airport | King Khalid International Airport (OERK) |
Arrival
| Time | N/A |
|---|---|
| Airport | Bahrain International Airport (OBBI) |
| Time | Latitude | Longitude | Altitude | Speed | Heading |
|---|---|---|---|---|---|
| 2026-05-08 07:25 | 24.95397 | 46.70875 | 2040 ft | 0 kts | 240° |
| 2026-05-08 07:38 | 24.95399 | 46.70880 | 2031 ft | 2 kts | 240° |
| 2026-05-08 07:38 | 24.95408 | 46.70896 | 2040 ft | 2 kts | 240° |
| 2026-05-08 07:38 | 24.95416 | 46.70912 | 2039 ft | 2 kts | 240° |
| 2026-05-08 07:38 | 24.95425 | 46.70929 | 2037 ft | 2 kts | 240° |
| 2026-05-08 07:39 | 24.95435 | 46.70944 | 2040 ft | 2 kts | 188° |
| 2026-05-08 07:39 | 24.95449 | 46.70942 | 2038 ft | 0 kts | 124° |
| 2026-05-08 07:41 | 24.95433 | 46.70965 | 2038 ft | 7 kts | 135° |
| 2026-05-08 07:41 | 24.95387 | 46.70996 | 2034 ft | 7 kts | 150° |
| 2026-05-08 07:41 | 24.95330 | 46.71058 | 2035 ft | 15 kts | 97° |
| 2026-05-08 07:41 | 24.95375 | 46.71162 | 2037 ft | 16 kts | 59° |
| 2026-05-08 07:42 | 24.95418 | 46.71276 | 2031 ft | 17 kts | 102° |
| 2026-05-08 07:42 | 24.95334 | 46.71346 | 2041 ft | 14 kts | 149° |
| 2026-05-08 07:42 | 24.95253 | 46.71398 | 2036 ft | 13 kts | 149° |
| 2026-05-08 07:42 | 24.95183 | 46.71443 | 2036 ft | 11 kts | 149° |
| 2026-05-08 07:43 | 24.95122 | 46.71482 | 2033 ft | 9 kts | 149° |
| 2026-05-08 07:43 | 24.95065 | 46.71517 | 2036 ft | 12 kts | 151° |
| 2026-05-08 07:43 | 24.94971 | 46.71574 | 2040 ft | 19 kts | 149° |
| 2026-05-08 07:43 | 24.94863 | 46.71643 | 2034 ft | 17 kts | 150° |
| 2026-05-08 07:44 | 24.94762 | 46.71708 | 2036 ft | 17 kts | 150° |
| 2026-05-08 07:44 | 24.94644 | 46.71782 | 2039 ft | 21 kts | 150° |
| 2026-05-08 07:44 | 24.94515 | 46.71864 | 2038 ft | 22 kts | 150° |
| 2026-05-08 07:44 | 24.94378 | 46.71950 | 2041 ft | 23 kts | 150° |
| 2026-05-08 07:45 | 24.94317 | 46.72084 | 2040 ft | 23 kts | 65° |
| 2026-05-08 07:45 | 24.94402 | 46.72233 | 2037 ft | 23 kts | 39° |
| 2026-05-08 07:45 | 24.94563 | 46.72178 | 2035 ft | 38 kts | 330° |
| 2026-05-08 07:45 | 24.95011 | 46.71898 | 2035 ft | 108 kts | 330° |
| 2026-05-08 07:46 | 24.95828 | 46.71379 | 2035 ft | 161 kts | 330° |
| 2026-05-08 07:46 | 24.96882 | 46.70697 | 2385 ft | 178 kts | 329° |
| 2026-05-08 07:46 | 24.97937 | 46.70017 | 3177 ft | 174 kts | 333° |
| 2026-05-08 07:46 | 24.99054 | 46.69482 | 3917 ft | 178 kts | 342° |
| 2026-05-08 07:47 | 24.99870 | 46.69242 | 4208 ft | 190 kts | 358° |
| 2026-05-08 07:47 | 25.01194 | 46.69590 | 4590 ft | 208 kts | 35° |
| 2026-05-08 07:47 | 25.02415 | 46.70604 | 4985 ft | 233 kts | 38° |
| 2026-05-08 07:47 | 25.03797 | 46.71702 | 5407 ft | 257 kts | 36° |
| 2026-05-08 07:48 | 25.05313 | 46.72864 | 5973 ft | 272 kts | 35° |
| 2026-05-08 07:48 | 25.06894 | 46.74069 | 6740 ft | 278 kts | 34° |
| 2026-05-08 07:48 | 25.08497 | 46.75294 | 7468 ft | 284 kts | 34° |
| 2026-05-08 07:48 | 25.10137 | 46.76555 | 8187 ft | 290 kts | 35° |
| 2026-05-08 07:49 | 25.11804 | 46.77847 | 8929 ft | 296 kts | 35° |
| 2026-05-08 07:49 | 25.13500 | 46.79164 | 9701 ft | 301 kts | 36° |
| 2026-05-08 07:49 | 25.15238 | 46.80517 | 10246 ft | 315 kts | 36° |
| 2026-05-08 07:49 | 25.17095 | 46.81961 | 10489 ft | 338 kts | 36° |
| 2026-05-08 07:50 | 25.19081 | 46.83510 | 10689 ft | 360 kts | 36° |
| 2026-05-08 07:50 | 25.21165 | 46.85133 | 11177 ft | 371 kts | 36° |
| 2026-05-08 07:50 | 25.23290 | 46.86788 | 11820 ft | 376 kts | 36° |
| 2026-05-08 07:50 | 25.25440 | 46.88465 | 12476 ft | 381 kts | 36° |
| 2026-05-08 07:51 | 25.27618 | 46.90167 | 13131 ft | 386 kts | 36° |
| 2026-05-08 07:51 | 25.29830 | 46.91897 | 13737 ft | 393 kts | 36° |
| 2026-05-08 07:51 | 25.32080 | 46.93656 | 14326 ft | 398 kts | 36° |
| 2026-05-08 07:51 | 25.34353 | 46.95437 | 14953 ft | 402 kts | 36° |
| 2026-05-08 07:52 | 25.36642 | 46.97226 | 15562 ft | 405 kts | 35° |
| 2026-05-08 07:52 | 25.38955 | 46.99033 | 16186 ft | 409 kts | 35° |
| 2026-05-08 07:52 | 25.41285 | 47.00856 | 16793 ft | 412 kts | 35° |
| 2026-05-08 07:52 | 25.43638 | 47.02700 | 17368 ft | 416 kts | 35° |
| 2026-05-08 07:53 | 25.45973 | 47.04531 | 17957 ft | 419 kts | 35° |
| 2026-05-08 07:53 | 25.48363 | 47.06404 | 18495 ft | 423 kts | 34° |
| 2026-05-08 07:53 | 25.50773 | 47.08292 | 18970 ft | 427 kts | 34° |
| 2026-05-08 07:53 | 25.53204 | 47.10199 | 19442 ft | 430 kts | 34° |
| 2026-05-08 07:54 | 25.55662 | 47.12128 | 19919 ft | 434 kts | 34° |
| 2026-05-08 07:54 | 25.58137 | 47.14071 | 20372 ft | 438 kts | 34° |
| 2026-05-08 07:54 | 25.60633 | 47.16030 | 20833 ft | 442 kts | 34° |
| 2026-05-08 07:54 | 25.63160 | 47.18014 | 21235 ft | 447 kts | 34° |
| 2026-05-08 07:55 | 25.65707 | 47.20014 | 21654 ft | 451 kts | 34° |
| 2026-05-08 07:55 | 25.68282 | 47.22040 | 22082 ft | 455 kts | 34° |
| 2026-05-08 07:55 | 25.70874 | 47.24084 | 22529 ft | 459 kts | 34° |
| 2026-05-08 07:55 | 25.73487 | 47.26145 | 22910 ft | 462 kts | 34° |
| 2026-05-08 07:56 | 25.76115 | 47.28221 | 23000 ft | 468 kts | 34° |
| 2026-05-08 07:56 | 25.78801 | 47.30341 | 23007 ft | 478 kts | 34° |
| 2026-05-08 07:56 | 25.81519 | 47.32485 | 23009 ft | 480 kts | 34° |
| 2026-05-08 07:56 | 25.84240 | 47.34637 | 23009 ft | 481 kts | 34° |
| 2026-05-08 07:57 | 25.86968 | 47.36800 | 23021 ft | 481 kts | 34° |
| 2026-05-08 07:57 | 25.89689 | 47.38952 | 23001 ft | 481 kts | 34° |
| 2026-05-08 07:57 | 25.92407 | 47.41101 | 23006 ft | 479 kts | 35° |
| 2026-05-08 07:57 | 25.95123 | 47.43253 | 23019 ft | 478 kts | 35° |
| 2026-05-08 07:58 | 25.97824 | 47.45396 | 23023 ft | 477 kts | 35° |
| 2026-05-08 07:58 | 26.00529 | 47.47534 | 23003 ft | 477 kts | 34° |
| 2026-05-08 07:58 | 26.03237 | 47.49675 | 23003 ft | 477 kts | 35° |
| 2026-05-08 07:58 | 26.05935 | 47.51813 | 23003 ft | 477 kts | 35° |
| 2026-05-08 07:59 | 26.08638 | 47.53957 | 23008 ft | 477 kts | 35° |
| 2026-05-08 07:59 | 26.11336 | 47.56102 | 23002 ft | 477 kts | 35° |
| 2026-05-08 07:59 | 26.14032 | 47.58250 | 22998 ft | 477 kts | 35° |
| 2026-05-08 07:59 | 26.16729 | 47.60399 | 22994 ft | 476 kts | 35° |
| 2026-05-08 08:00 | 26.19424 | 47.62547 | 22991 ft | 476 kts | 35° |
| 2026-05-08 08:00 | 26.22077 | 47.64669 | 22996 ft | 476 kts | 36° |
| 2026-05-08 08:00 | 26.24566 | 47.67092 | 22999 ft | 476 kts | 46° |
| 2026-05-08 08:00 | 26.26656 | 47.69944 | 22995 ft | 476 kts | 56° |
| 2026-05-08 08:01 | 26.28296 | 47.73143 | 22991 ft | 475 kts | 66° |
| 2026-05-08 08:01 | 26.29431 | 47.76579 | 22986 ft | 472 kts | 77° |
| 2026-05-08 08:01 | 26.30174 | 47.80147 | 22985 ft | 472 kts | 79° |
| 2026-05-08 08:01 | 26.30894 | 47.83707 | 22988 ft | 472 kts | 79° |
| 2026-05-08 08:02 | 26.31621 | 47.87278 | 22998 ft | 471 kts | 79° |
| 2026-05-08 08:02 | 26.32349 | 47.90840 | 22990 ft | 471 kts | 79° |
| 2026-05-08 08:02 | 26.33077 | 47.94393 | 22985 ft | 471 kts | 79° |
| 2026-05-08 08:02 | 26.33808 | 47.97963 | 22996 ft | 476 kts | 79° |
| 2026-05-08 08:03 | 26.34548 | 48.01608 | 22981 ft | 488 kts | 79° |
| 2026-05-08 08:03 | 26.35304 | 48.05340 | 22992 ft | 499 kts | 79° |
| 2026-05-08 08:03 | 26.36076 | 48.09141 | 22989 ft | 507 kts | 79° |
| 2026-05-08 08:03 | 26.36858 | 48.12993 | 22990 ft | 512 kts | 79° |
| 2026-05-08 08:04 | 26.37642 | 48.16880 | 22989 ft | 513 kts | 79° |
| 2026-05-08 08:04 | 26.38424 | 48.20760 | 22975 ft | 513 kts | 79° |
| 2026-05-08 08:04 | 26.39208 | 48.24643 | 22967 ft | 515 kts | 79° |
| 2026-05-08 08:04 | 26.39994 | 48.28544 | 22973 ft | 517 kts | 79° |
| 2026-05-08 08:05 | 26.40781 | 48.32458 | 22966 ft | 517 kts | 79° |
| 2026-05-08 08:05 | 26.41565 | 48.36368 | 22961 ft | 517 kts | 79° |
| 2026-05-08 08:05 | 26.42347 | 48.40280 | 22958 ft | 517 kts | 79° |
| 2026-05-08 08:05 | 26.43127 | 48.44194 | 22966 ft | 517 kts | 79° |
| 2026-05-08 08:06 | 26.43906 | 48.48102 | 22938 ft | 517 kts | 79° |
| 2026-05-08 08:06 | 26.44687 | 48.52019 | 22937 ft | 517 kts | 79° |
| 2026-05-08 08:06 | 26.45468 | 48.55931 | 22939 ft | 517 kts | 79° |
| 2026-05-08 08:06 | 26.46238 | 48.59796 | 22928 ft | 517 kts | 79° |
| 2026-05-08 08:07 | 26.47015 | 48.63708 | 22923 ft | 516 kts | 79° |
| 2026-05-08 08:07 | 26.47562 | 48.67656 | 22917 ft | 513 kts | 88° |
| 2026-05-08 08:07 | 26.47683 | 48.71622 | 22928 ft | 512 kts | 91° |
| 2026-05-08 08:07 | 26.47773 | 48.75592 | 22926 ft | 511 kts | 91° |
| 2026-05-08 08:08 | 26.47860 | 48.79562 | 22920 ft | 511 kts | 91° |
| 2026-05-08 08:08 | 26.47946 | 48.83521 | 22918 ft | 511 kts | 91° |
| 2026-05-08 08:08 | 26.48035 | 48.87490 | 22918 ft | 511 kts | 91° |
| 2026-05-08 08:08 | 26.48125 | 48.91455 | 22913 ft | 511 kts | 91° |
| 2026-05-08 08:09 | 26.48215 | 48.95418 | 22909 ft | 511 kts | 91° |
| 2026-05-08 08:09 | 26.48306 | 48.99383 | 22908 ft | 511 kts | 91° |
| 2026-05-08 08:09 | 26.48393 | 49.03339 | 22907 ft | 510 kts | 91° |
| 2026-05-08 08:09 | 26.48474 | 49.07282 | 22923 ft | 509 kts | 91° |
| 2026-05-08 08:10 | 26.48552 | 49.11236 | 22922 ft | 508 kts | 91° |
| 2026-05-08 08:10 | 26.48629 | 49.15175 | 22925 ft | 508 kts | 91° |
| 2026-05-08 08:10 | 26.48705 | 49.19115 | 22915 ft | 507 kts | 91° |
| 2026-05-08 08:10 | 26.48782 | 49.22994 | 22914 ft | 507 kts | 91° |
| 2026-05-08 08:11 | 26.48858 | 49.26938 | 22906 ft | 507 kts | 91° |
| 2026-05-08 08:11 | 26.48933 | 49.30870 | 22899 ft | 506 kts | 91° |
| 2026-05-08 08:11 | 26.49009 | 49.34793 | 22897 ft | 506 kts | 91° |
| 2026-05-08 08:11 | 26.49085 | 49.38722 | 22894 ft | 507 kts | 91° |
| 2026-05-08 08:12 | 26.49160 | 49.42650 | 22888 ft | 507 kts | 91° |
| 2026-05-08 08:12 | 26.49232 | 49.46589 | 22885 ft | 507 kts | 91° |
| 2026-05-08 08:12 | 26.49300 | 49.50518 | 22891 ft | 507 kts | 91° |
| 2026-05-08 08:12 | 26.49367 | 49.54456 | 22884 ft | 507 kts | 91° |
| 2026-05-08 08:13 | 26.49435 | 49.58318 | 22877 ft | 486 kts | 91° |
| 2026-05-08 08:13 | 26.49503 | 49.62017 | 22881 ft | 470 kts | 91° |
| 2026-05-08 08:13 | 26.49567 | 49.65648 | 22880 ft | 466 kts | 91° |
| 2026-05-08 08:13 | 26.49626 | 49.69255 | 22891 ft | 464 kts | 92° |
| 2026-05-08 08:14 | 26.49681 | 49.72849 | 22725 ft | 460 kts | 92° |
| 2026-05-08 08:14 | 26.49733 | 49.76404 | 22462 ft | 456 kts | 92° |
| 2026-05-08 08:14 | 26.49736 | 49.79928 | 22200 ft | 452 kts | 94° |
| 2026-05-08 08:14 | 26.49620 | 49.83420 | 21952 ft | 449 kts | 96° |
| 2026-05-08 08:15 | 26.49418 | 49.86891 | 21705 ft | 446 kts | 97° |
| 2026-05-08 08:15 | 26.49176 | 49.90335 | 21450 ft | 444 kts | 97° |
| 2026-05-08 08:15 | 26.48929 | 49.93719 | 21202 ft | 442 kts | 97° |
| 2026-05-08 08:15 | 26.48695 | 49.97125 | 20952 ft | 440 kts | 97° |
| 2026-05-08 08:16 | 26.48481 | 50.00526 | 20696 ft | 437 kts | 97° |
| 2026-05-08 08:16 | 26.48287 | 50.03884 | 20154 ft | 432 kts | 96° |
| 2026-05-08 08:16 | 26.48107 | 50.07216 | 19552 ft | 428 kts | 96° |
| 2026-05-08 08:16 | 26.47934 | 50.10510 | 18998 ft | 423 kts | 96° |
| 2026-05-08 08:17 | 26.47759 | 50.13781 | 18453 ft | 419 kts | 96° |
| 2026-05-08 08:17 | 26.47581 | 50.17007 | 17893 ft | 415 kts | 96° |
| 2026-05-08 08:17 | 26.47404 | 50.20204 | 17366 ft | 409 kts | 96° |
| 2026-05-08 08:17 | 26.47226 | 50.23357 | 16841 ft | 404 kts | 96° |
| 2026-05-08 08:18 | 26.47047 | 50.26474 | 16312 ft | 400 kts | 96° |
| 2026-05-08 08:18 | 26.46868 | 50.29549 | 15786 ft | 396 kts | 96° |
| 2026-05-08 08:18 | 26.46686 | 50.32608 | 15242 ft | 394 kts | 96° |
| 2026-05-08 08:18 | 26.46561 | 50.35649 | 14690 ft | 392 kts | 90° |
| 2026-05-08 08:19 | 26.46877 | 50.38664 | 14121 ft | 392 kts | 79° |
| 2026-05-08 08:19 | 26.47706 | 50.41563 | 13522 ft | 392 kts | 70° |
| 2026-05-08 08:19 | 26.48756 | 50.44366 | 12894 ft | 390 kts | 69° |
| 2026-05-08 08:19 | 26.49789 | 50.47151 | 12283 ft | 387 kts | 70° |
| 2026-05-08 08:20 | 26.50811 | 50.49927 | 11666 ft | 385 kts | 69° |
| 2026-05-08 08:20 | 26.51823 | 50.52685 | 11151 ft | 381 kts | 70° |
| 2026-05-08 08:20 | 26.52814 | 50.55396 | 10776 ft | 372 kts | 69° |
| 2026-05-08 08:20 | 26.53773 | 50.58017 | 10663 ft | 356 kts | 70° |
| 2026-05-08 08:21 | 26.54337 | 50.60622 | 10542 ft | 338 kts | 89° |
| 2026-05-08 08:21 | 26.54041 | 50.63104 | 10427 ft | 321 kts | 111° |
| 2026-05-08 08:21 | 26.52990 | 50.65250 | 10301 ft | 303 kts | 133° |
| 2026-05-08 08:21 | 26.51475 | 50.66746 | 10149 ft | 292 kts | 151° |
| 2026-05-08 08:22 | 26.49674 | 50.67797 | 10067 ft | 292 kts | 152° |
| 2026-05-08 08:22 | 26.48000 | 50.69154 | 9844 ft | 297 kts | 139° |
| 2026-05-08 08:22 | 26.46683 | 50.70897 | 9410 ft | 300 kts | 125° |
| 2026-05-08 08:22 | 26.45446 | 50.72751 | 9015 ft | 296 kts | 140° |
| 2026-05-08 08:23 | 26.43696 | 50.73856 | 8643 ft | 287 kts | 167° |
| 2026-05-08 08:23 | 26.41737 | 50.73996 | 8200 ft | 283 kts | 191° |
| 2026-05-08 08:23 | 26.39908 | 50.73218 | 7740 ft | 283 kts | 210° |
| 2026-05-08 08:23 | 26.38090 | 50.72371 | 7290 ft | 286 kts | 189° |
| 2026-05-08 08:24 | 26.36139 | 50.72643 | 6866 ft | 286 kts | 153° |
| 2026-05-08 08:24 | 26.34681 | 50.74080 | 6735 ft | 284 kts | 121° |
| 2026-05-08 08:24 | 26.33734 | 50.76019 | 6562 ft | 285 kts | 118° |
| 2026-05-08 08:24 | 26.32728 | 50.77927 | 6362 ft | 285 kts | 120° |
| 2026-05-08 08:25 | 26.31666 | 50.79795 | 6163 ft | 286 kts | 121° |
| 2026-05-08 08:25 | 26.30585 | 50.81646 | 5934 ft | 285 kts | 120° |
| 2026-05-08 08:25 | 26.29485 | 50.83526 | 5233 ft | 295 kts | 120° |
| 2026-05-08 08:25 | 26.28379 | 50.85420 | 5010 ft | 285 kts | 120° |
| 2026-05-08 08:26 | 26.27321 | 50.87223 | 4948 ft | 270 kts | 120° |
| 2026-05-08 08:26 | 26.26321 | 50.88922 | 4888 ft | 256 kts | 119° |
| 2026-05-08 08:26 | 26.25367 | 50.90542 | 4783 ft | 244 kts | 119° |